sensor_id;sensor_type;location;lat;lon;timestamp;temperature;humidity
69503;SHT31;56704;54.242;12.442;2024-03-23T00:52:53;6.44;85.80
69503;SHT31;56704;54.242;12.442;2024-03-23T00:55:20;6.48;85.81
69503;SHT31;56704;54.242;12.442;2024-03-23T00:57:45;6.42;85.78
69503;SHT31;56704;54.242;12.442;2024-03-23T01:00:13;6.41;85.56
69503;SHT31;56704;54.242;12.442;2024-03-23T01:02:38;6.40;85.58
69503;SHT31;56704;54.242;12.442;2024-03-23T01:05:05;6.38;85.47
69503;SHT31;56704;54.242;12.442;2024-03-23T01:07:31;6.35;85.23
69503;SHT31;56704;54.242;12.442;2024-03-23T01:09:59;6.37;85.42
69503;SHT31;56704;54.242;12.442;2024-03-23T01:12:24;6.37;85.42
69503;SHT31;56704;54.242;12.442;2024-03-23T01:14:51;6.34;85.48
69503;SHT31;56704;54.242;12.442;2024-03-23T01:17:16;6.28;85.29
69503;SHT31;56704;54.242;12.442;2024-03-23T01:19:43;6.30;85.33
69503;SHT31;56704;54.242;12.442;2024-03-23T01:22:08;6.27;85.25
69503;SHT31;56704;54.242;12.442;2024-03-23T01:24:36;6.24;85.39
69503;SHT31;56704;54.242;12.442;2024-03-23T01:27:03;6.22;85.17
69503;SHT31;56704;54.242;12.442;2024-03-23T01:29:29;6.22;85.46
69503;SHT31;56704;54.242;12.442;2024-03-23T01:31:55;6.20;85.56
69503;SHT31;56704;54.242;12.442;2024-03-23T01:34:21;6.18;85.71
69503;SHT31;56704;54.242;12.442;2024-03-23T01:36:47;6.09;85.67
69503;SHT31;56704;54.242;12.442;2024-03-23T01:39:13;6.13;85.79
69503;SHT31;56704;54.242;12.442;2024-03-23T01:41:39;6.11;85.78
69503;SHT31;56704;54.242;12.442;2024-03-23T01:44:09;6.03;85.92
69503;SHT31;56704;54.242;12.442;2024-03-23T01:46:35;6.06;85.95
69503;SHT31;56704;54.242;12.442;2024-03-23T01:49:02;6.00;85.95
69503;SHT31;56704;54.242;12.442;2024-03-23T01:51:29;6.00;85.98
69503;SHT31;56704;54.242;12.442;2024-03-23T01:53:56;6.00;86.04
69503;SHT31;56704;54.242;12.442;2024-03-23T01:56:22;6.00;86.11
69503;SHT31;56704;54.242;12.442;2024-03-23T01:58:48;5.96;86.24
69503;SHT31;56704;54.242;12.442;2024-03-23T02:01:15;5.96;86.31
69503;SHT31;56704;54.242;12.442;2024-03-23T02:03:42;5.96;86.34
69503;SHT31;56704;54.242;12.442;2024-03-23T02:06:08;5.90;86.41
69503;SHT31;56704;54.242;12.442;2024-03-23T02:08:35;5.89;86.54
69503;SHT31;56704;54.242;12.442;2024-03-23T02:11:00;5.87;86.52
69503;SHT31;56704;54.242;12.442;2024-03-23T02:13:27;5.87;86.58
69503;SHT31;56704;54.242;12.442;2024-03-23T02:15:52;5.87;86.58
69503;SHT31;56704;54.242;12.442;2024-03-23T02:18:20;5.86;86.57
69503;SHT31;56704;54.242;12.442;2024-03-23T02:20:45;5.83;86.62
69503;SHT31;56704;54.242;12.442;2024-03-23T02:23:17;5.81;86.75
69503;SHT31;56704;54.242;12.442;2024-03-23T02:25:43;5.81;86.88
69503;SHT31;56704;54.242;12.442;2024-03-23T02:28:10;5.73;86.81
69503;SHT31;56704;54.242;12.442;2024-03-23T02:30:36;5.77;86.94
69503;SHT31;56704;54.242;12.442;2024-03-23T02:33:03;5.74;87.07
69503;SHT31;56704;54.242;12.442;2024-03-23T02:35:28;5.71;86.84
69503;SHT31;56704;54.242;12.442;2024-03-23T02:37:55;5.76;86.90
69503;SHT31;56704;54.242;12.442;2024-03-23T02:40:24;5.73;86.88
69503;SHT31;56704;54.242;12.442;2024-03-23T02:42:51;5.73;86.77
69503;SHT31;56704;54.242;12.442;2024-03-23T02:45:16;5.73;86.81
69503;SHT31;56704;54.242;12.442;2024-03-23T02:47:43;5.74;86.94
69503;SHT31;56704;54.242;12.442;2024-03-23T02:50:09;5.71;87.02
69503;SHT31;56704;54.242;12.442;2024-03-23T02:52:35;5.69;87.06
69503;SHT31;56704;54.242;12.442;2024-03-23T02:55:01;5.66;87.07
69503;SHT31;56704;54.242;12.442;2024-03-23T02:57:30;5.62;87.15
69503;SHT31;56704;54.242;12.442;2024-03-23T02:59:55;5.60;87.14
69503;SHT31;56704;54.242;12.442;2024-03-23T03:02:22;5.59;87.29
69503;SHT31;56704;54.242;12.442;2024-03-23T03:04:47;5.55;87.35
69503;SHT31;56704;54.242;12.442;2024-03-23T03:07:14;5.50;87.46
69503;SHT31;56704;54.242;12.442;2024-03-23T03:09:40;5.52;87.60
69503;SHT31;56704;54.242;12.442;2024-03-23T03:12:07;5.50;87.68
69503;SHT31;56704;54.242;12.442;2024-03-23T03:14:34;5.46;87.79
69503;SHT31;56704;54.242;12.442;2024-03-23T03:17:00;5.43;87.88
69503;SHT31;56704;54.242;12.442;2024-03-23T03:19:26;5.43;88.00
69503;SHT31;56704;54.242;12.442;2024-03-23T03:21:53;5.36;88.22
69503;SHT31;56704;54.242;12.442;2024-03-23T03:24:18;5.36;88.24
69503;SHT31;56704;54.242;12.442;2024-03-23T03:26:45;5.38;88.33
69503;SHT31;56704;54.242;12.442;2024-03-23T03:29:10;5.38;88.44
69503;SHT31;56704;54.242;12.442;2024-03-23T03:31:38;5.34;88.51
69503;SHT31;56704;54.242;12.442;2024-03-23T03:34:04;5.28;88.63
69503;SHT31;56704;54.242;12.442;2024-03-23T03:36:30;5.24;88.63
69503;SHT31;56704;54.242;12.442;2024-03-23T03:38:56;5.19;88.72
69503;SHT31;56704;54.242;12.442;2024-03-23T03:41:22;5.17;88.78
69503;SHT31;56704;54.242;12.442;2024-03-23T03:43:48;5.15;88.82
69503;SHT31;56704;54.242;12.442;2024-03-23T03:46:14;5.09;88.89
69503;SHT31;56704;54.242;12.442;2024-03-23T03:48:41;5.04;88.95
69503;SHT31;56704;54.242;12.442;2024-03-23T03:51:10;5.01;89.01
69503;SHT31;56704;54.242;12.442;2024-03-23T03:53:35;4.95;89.09
69503;SHT31;56704;54.242;12.442;2024-03-23T03:56:02;4.88;89.09
69503;SHT31;56704;54.242;12.442;2024-03-23T03:58:28;4.88;89.14
69503;SHT31;56704;54.242;12.442;2024-03-23T04:00:54;4.85;89.22
69503;SHT31;56704;54.242;12.442;2024-03-23T04:03:20;4.78;89.28
69503;SHT31;56704;54.242;12.442;2024-03-23T04:05:51;4.74;89.33
69503;SHT31;56704;54.242;12.442;2024-03-23T04:08:17;4.74;89.39
69503;SHT31;56704;54.242;12.442;2024-03-23T04:10:43;4.66;89.36
69503;SHT31;56704;54.242;12.442;2024-03-23T04:13:09;4.60;89.52
69503;SHT31;56704;54.242;12.442;2024-03-23T04:15:35;4.54;89.56
69503;SHT31;56704;54.242;12.442;2024-03-23T04:18:01;4.56;89.67
69503;SHT31;56704;54.242;12.442;2024-03-23T04:20:27;4.56;89.69
69503;SHT31;56704;54.242;12.442;2024-03-23T04:22:55;4.54;89.73
69503;SHT31;56704;54.242;12.442;2024-03-23T04:25:21;4.50;89.83
69503;SHT31;56704;54.242;12.442;2024-03-23T04:27:47;4.46;89.85
69503;SHT31;56704;54.242;12.442;2024-03-23T04:30:13;4.43;89.94
69503;SHT31;56704;54.242;12.442;2024-03-23T04:32:40;4.39;90.06
69503;SHT31;56704;54.242;12.442;2024-03-23T04:35:07;4.40;90.14
69503;SHT31;56704;54.242;12.442;2024-03-23T04:37:35;4.33;90.33
69503;SHT31;56704;54.242;12.442;2024-03-23T04:40:04;4.29;90.58
69503;SHT31;56704;54.242;12.442;2024-03-23T04:42:30;4.29;90.67
69503;SHT31;56704;54.242;12.442;2024-03-23T04:44:57;4.28;90.81
69503;SHT31;56704;54.242;12.442;2024-03-23T04:47:24;4.26;90.96
69503;SHT31;56704;54.242;12.442;2024-03-23T04:49:49;4.23;90.96
69503;SHT31;56704;54.242;12.442;2024-03-23T04:52:16;4.20;91.11
69503;SHT31;56704;54.242;12.442;2024-03-23T04:54:41;4.19;91.13
69503;SHT31;56704;54.242;12.442;2024-03-23T04:57:09;4.20;91.14
69503;SHT31;56704;54.242;12.442;2024-03-23T04:59:35;4.23;91.20
69503;SHT31;56704;54.242;12.442;2024-03-23T05:02:01;4.22;91.19
69503;SHT31;56704;54.242;12.442;2024-03-23T05:04:28;4.17;91.21
69503;SHT31;56704;54.242;12.442;2024-03-23T05:06:54;4.22;91.20
69503;SHT31;56704;54.242;12.442;2024-03-23T05:09:20;4.19;91.24
69503;SHT31;56704;54.242;12.442;2024-03-23T05:11:46;4.20;91.26
69503;SHT31;56704;54.242;12.442;2024-03-23T05:14:14;4.22;91.25
69503;SHT31;56704;54.242;12.442;2024-03-23T05:16:40;4.20;91.23
69503;SHT31;56704;54.242;12.442;2024-03-23T05:19:06;4.23;91.22
69503;SHT31;56704;54.242;12.442;2024-03-23T05:21:33;4.23;91.22
69503;SHT31;56704;54.242;12.442;2024-03-23T05:23:58;4.23;91.16
69503;SHT31;56704;54.242;12.442;2024-03-23T05:26:25;4.25;91.16
69503;SHT31;56704;54.242;12.442;2024-03-23T05:28:50;4.20;91.15
69503;SHT31;56704;54.242;12.442;2024-03-23T05:31:24;4.22;91.18
69503;SHT31;56704;54.242;12.442;2024-03-23T05:33:50;4.22;91.15
69503;SHT31;56704;54.242;12.442;2024-03-23T05:36:17;4.15;91.18
69503;SHT31;56704;54.242;12.442;2024-03-23T05:38:42;4.16;91.31
69503;SHT31;56704;54.242;12.442;2024-03-23T05:41:09;4.15;91.12
69503;SHT31;56704;54.242;12.442;2024-03-23T05:43:35;4.17;91.15
69503;SHT31;56704;54.242;12.442;2024-03-23T05:46:02;4.15;91.15
69503;SHT31;56704;54.242;12.442;2024-03-23T05:48:29;4.12;91.23
69503;SHT31;56704;54.242;12.442;2024-03-23T05:50:56;4.06;91.35
69503;SHT31;56704;54.242;12.442;2024-03-23T05:53:22;4.15;91.33
69503;SHT31;56704;54.242;12.442;2024-03-23T05:55:49;4.16;91.32
69503;SHT31;56704;54.242;12.442;2024-03-23T05:58:15;4.20;91.32
69503;SHT31;56704;54.242;12.442;2024-03-23T06:00:42;4.25;91.27
69503;SHT31;56704;54.242;12.442;2024-03-23T06:03:08;4.30;91.20
69503;SHT31;56704;54.242;12.442;2024-03-23T06:05:36;4.35;91.26
69503;SHT31;56704;54.242;12.442;2024-03-23T06:08:02;4.43;91.26
69503;SHT31;56704;54.242;12.442;2024-03-23T06:10:29;4.49;91.19
69503;SHT31;56704;54.242;12.442;2024-03-23T06:12:55;4.53;91.17
69503;SHT31;56704;54.242;12.442;2024-03-23T06:15:21;4.58;90.93
69503;SHT31;56704;54.242;12.442;2024-03-23T06:17:48;4.58;90.95
69503;SHT31;56704;54.242;12.442;2024-03-23T06:20:15;4.64;90.94
69503;SHT31;56704;54.242;12.442;2024-03-23T06:22:41;4.73;90.90
69503;SHT31;56704;54.242;12.442;2024-03-23T06:25:08;4.73;90.71
69503;SHT31;56704;54.242;12.442;2024-03-23T06:27:34;4.81;90.50
69503;SHT31;56704;54.242;12.442;2024-03-23T06:30:00;4.84;90.35
69503;SHT31;56704;54.242;12.442;2024-03-23T06:32:27;4.94;90.31
69503;SHT31;56704;54.242;12.442;2024-03-23T06:34:54;4.97;90.28
69503;SHT31;56704;54.242;12.442;2024-03-23T06:37:19;5.05;90.17
69503;SHT31;56704;54.242;12.442;2024-03-23T06:39:47;5.08;89.96
69503;SHT31;56704;54.242;12.442;2024-03-23T06:42:13;5.27;89.95
69503;SHT31;56704;54.242;12.442;2024-03-23T06:44:39;5.42;89.85
69503;SHT31;56704;54.242;12.442;2024-03-23T06:47:05;5.67;89.76
69503;SHT31;56704;54.242;12.442;2024-03-23T06:49:32;5.77;89.47
69503;SHT31;56704;54.242;12.442;2024-03-23T06:51:57;5.69;88.15
69503;SHT31;56704;54.242;12.442;2024-03-23T06:54:24;5.73;87.81
69503;SHT31;56704;54.242;12.442;2024-03-23T06:56:51;5.74;87.82
69503;SHT31;56704;54.242;12.442;2024-03-23T06:59:17;5.83;87.69
69503;SHT31;56704;54.242;12.442;2024-03-23T07:01:43;5.86;87.44
69503;SHT31;56704;54.242;12.442;2024-03-23T07:04:09;5.81;87.08
69503;SHT31;56704;54.242;12.442;2024-03-23T07:06:42;5.99;87.25
69503;SHT31;56704;54.242;12.442;2024-03-23T07:09:08;5.96;86.78
69503;SHT31;56704;54.242;12.442;2024-03-23T07:11:34;5.93;86.54
69503;SHT31;56704;54.242;12.442;2024-03-23T07:14:02;6.00;86.63
69503;SHT31;56704;54.242;12.442;2024-03-23T07:16:28;6.06;86.41
69503;SHT31;56704;54.242;12.442;2024-03-23T07:18:54;6.18;86.60
69503;SHT31;56704;54.242;12.442;2024-03-23T07:21:20;6.22;86.16
69503;SHT31;56704;54.242;12.442;2024-03-23T07:23:47;6.20;85.91
69503;SHT31;56704;54.242;12.442;2024-03-23T07:26:13;6.25;85.74
69503;SHT31;56704;54.242;12.442;2024-03-23T07:28:40;6.20;85.66
69503;SHT31;56704;54.242;12.442;2024-03-23T07:31:11;6.31;85.56
69503;SHT31;56704;54.242;12.442;2024-03-23T07:33:41;6.44;85.78
69503;SHT31;56704;54.242;12.442;2024-03-23T07:36:07;6.44;85.40
69503;SHT31;56704;54.242;12.442;2024-03-23T07:38:34;6.44;85.36
69503;SHT31;56704;54.242;12.442;2024-03-23T07:41:04;6.44;84.94
69503;SHT31;56704;54.242;12.442;2024-03-23T07:43:30;6.46;84.43
69503;SHT31;56704;54.242;12.442;2024-03-23T07:45:56;6.41;84.56
69503;SHT31;56704;54.242;12.442;2024-03-23T07:48:24;6.52;85.02
69503;SHT31;56704;54.242;12.442;2024-03-23T07:50:57;6.62;85.01
69503;SHT31;56704;54.242;12.442;2024-03-23T07:53:24;6.58;84.10
69503;SHT31;56704;54.242;12.442;2024-03-23T07:55:53;6.65;84.00
69503;SHT31;56704;54.242;12.442;2024-03-23T07:58:20;6.88;84.33
69503;SHT31;56704;54.242;12.442;2024-03-23T08:00:46;6.99;83.61
69503;SHT31;56704;54.242;12.442;2024-03-23T08:03:12;7.13;83.92
69503;SHT31;56704;54.242;12.442;2024-03-23T08:05:39;7.23;83.36
69503;SHT31;56704;54.242;12.442;2024-03-23T08:08:06;7.23;82.36
69503;SHT31;56704;54.242;12.442;2024-03-23T08:10:31;7.23;81.64
69503;SHT31;56704;54.242;12.442;2024-03-23T08:12:58;7.23;81.63
69503;SHT31;56704;54.242;12.442;2024-03-23T08:15:23;7.33;81.55
69503;SHT31;56704;54.242;12.442;2024-03-23T08:17:50;7.42;81.34
69503;SHT31;56704;54.242;12.442;2024-03-23T08:20:15;7.50;81.12
69503;SHT31;56704;54.242;12.442;2024-03-23T08:22:43;7.65;81.22
69503;SHT31;56704;54.242;12.442;2024-03-23T08:25:09;7.78;80.42
69503;SHT31;56704;54.242;12.442;2024-03-23T08:27:35;7.95;80.10
69503;SHT31;56704;54.242;12.442;2024-03-23T08:30:01;8.16;78.87
69503;SHT31;56704;54.242;12.442;2024-03-23T08:32:27;8.29;78.62
69503;SHT31;56704;54.242;12.442;2024-03-23T08:34:53;8.18;76.64
69503;SHT31;56704;54.242;12.442;2024-03-23T08:37:20;8.21;77.29
69503;SHT31;56704;54.242;12.442;2024-03-23T08:39:47;8.09;76.71
69503;SHT31;56704;54.242;12.442;2024-03-23T08:42:14;8.22;77.35
69503;SHT31;56704;54.242;12.442;2024-03-23T08:44:39;8.06;75.84
69503;SHT31;56704;54.242;12.442;2024-03-23T08:47:08;7.97;75.53
69503;SHT31;56704;54.242;12.442;2024-03-23T08:49:33;8.06;76.59
69503;SHT31;56704;54.242;12.442;2024-03-23T08:52:00;8.02;76.07
69503;SHT31;56704;54.242;12.442;2024-03-23T08:54:26;8.13;77.25
69503;SHT31;56704;54.242;12.442;2024-03-23T08:56:55;8.26;77.02
69503;SHT31;56704;54.242;12.442;2024-03-23T08:59:21;8.25;75.80
69503;SHT31;56704;54.242;12.442;2024-03-23T09:01:49;8.39;76.92
69503;SHT31;56704;54.242;12.442;2024-03-23T09:04:14;8.43;75.97
69503;SHT31;56704;54.242;12.442;2024-03-23T09:06:42;8.57;76.57
69503;SHT31;56704;54.242;12.442;2024-03-23T09:09:08;8.53;75.43
69503;SHT31;56704;54.242;12.442;2024-03-23T09:11:34;8.56;76.26
69503;SHT31;56704;54.242;12.442;2024-03-23T09:14:01;8.61;75.98
69503;SHT31;56704;54.242;12.442;2024-03-23T09:16:28;8.56;75.15
69503;SHT31;56704;54.242;12.442;2024-03-23T09:18:53;8.32;73.62
69503;SHT31;56704;54.242;12.442;2024-03-23T09:21:20;8.42;75.75
69503;SHT31;56704;54.242;12.442;2024-03-23T09:23:46;8.45;75.39
69503;SHT31;56704;54.242;12.442;2024-03-23T09:26:12;8.39;73.86
69503;SHT31;56704;54.242;12.442;2024-03-23T09:28:38;8.42;74.09
69503;SHT31;56704;54.242;12.442;2024-03-23T09:31:07;8.56;74.77
69503;SHT31;56704;54.242;12.442;2024-03-23T09:33:33;8.59;74.39
69503;SHT31;56704;54.242;12.442;2024-03-23T09:36:03;8.79;73.93
69503;SHT31;56704;54.242;12.442;2024-03-23T09:38:29;8.81;73.60
69503;SHT31;56704;54.242;12.442;2024-03-23T09:40:57;9.04;73.49
69503;SHT31;56704;54.242;12.442;2024-03-23T09:43:22;8.97;71.06
69503;SHT31;56704;54.242;12.442;2024-03-23T09:45:49;9.05;71.77
69503;SHT31;56704;54.242;12.442;2024-03-23T09:48:16;9.05;70.85
69503;SHT31;56704;54.242;12.442;2024-03-23T09:50:45;9.18;70.35
69503;SHT31;56704;54.242;12.442;2024-03-23T09:53:12;9.35;70.14
69503;SHT31;56704;54.242;12.442;2024-03-23T09:55:40;9.66;71.28
69503;SHT31;56704;54.242;12.442;2024-03-23T09:58:06;9.87;71.10
69503;SHT31;56704;54.242;12.442;2024-03-23T10:00:34;9.58;65.22
69503;SHT31;56704;54.242;12.442;2024-03-23T10:02:59;9.78;66.59
69503;SHT31;56704;54.242;12.442;2024-03-23T10:05:29;9.66;65.47
69503;SHT31;56704;54.242;12.442;2024-03-23T10:07:56;9.76;65.77
69503;SHT31;56704;54.242;12.442;2024-03-23T10:10:24;9.99;66.25
69503;SHT31;56704;54.242;12.442;2024-03-23T10:12:50;10.20;64.50
69503;SHT31;56704;54.242;12.442;2024-03-23T10:15:18;10.21;61.88
69503;SHT31;56704;54.242;12.442;2024-03-23T10:17:44;10.27;62.06
69503;SHT31;56704;54.242;12.442;2024-03-23T10:20:11;10.23;60.55
69503;SHT31;56704;54.242;12.442;2024-03-23T10:22:39;9.99;58.99
69503;SHT31;56704;54.242;12.442;2024-03-23T10:25:09;9.94;61.31
69503;SHT31;56704;54.242;12.442;2024-03-23T10:27:35;9.92;58.96
69503;SHT31;56704;54.242;12.442;2024-03-23T10:30:09;9.82;59.53
69503;SHT31;56704;54.242;12.442;2024-03-23T10:32:35;10.04;62.02
69503;SHT31;56704;54.242;12.442;2024-03-23T10:35:23;10.17;57.88
69503;SHT31;56704;54.242;12.442;2024-03-23T10:37:51;10.06;55.32
69503;SHT31;56704;54.242;12.442;2024-03-23T10:40:19;10.30;54.53
69503;SHT31;56704;54.242;12.442;2024-03-23T10:42:44;10.29;55.08
69503;SHT31;56704;54.242;12.442;2024-03-23T10:45:11;10.69;53.90
69503;SHT31;56704;54.242;12.442;2024-03-23T10:47:37;11.08;54.27
69503;SHT31;56704;54.242;12.442;2024-03-23T10:50:05;11.56;54.17
69503;SHT31;56704;54.242;12.442;2024-03-23T10:52:31;11.46;55.79
69503;SHT31;56704;54.242;12.442;2024-03-23T10:55:01;10.77;53.77
69503;SHT31;56704;54.242;12.442;2024-03-23T10:57:31;10.85;58.98
69503;SHT31;56704;54.242;12.442;2024-03-23T11:00:02;10.51;50.93
69503;SHT31;56704;54.242;12.442;2024-03-23T11:02:28;10.71;54.42
69503;SHT31;56704;54.242;12.442;2024-03-23T11:04:55;10.78;53.46
69503;SHT31;56704;54.242;12.442;2024-03-23T11:07:30;10.87;52.55
69503;SHT31;56704;54.242;12.442;2024-03-23T11:09:59;11.11;54.10
69503;SHT31;56704;54.242;12.442;2024-03-23T11:12:31;11.29;54.51
69503;SHT31;56704;54.242;12.442;2024-03-23T11:15:01;11.62;55.31
69503;SHT31;56704;54.242;12.442;2024-03-23T11:17:27;11.73;54.50
69503;SHT31;56704;54.242;12.442;2024-03-23T11:19:55;11.81;54.22
69503;SHT31;56704;54.242;12.442;2024-03-23T11:22:41;12.02;54.62
69503;SHT31;56704;54.242;12.442;2024-03-23T11:25:17;11.84;54.78
69503;SHT31;56704;54.242;12.442;2024-03-23T11:27:44;12.25;54.28
69503;SHT31;56704;54.242;12.442;2024-03-23T11:30:17;11.46;55.55
69503;SHT31;56704;54.242;12.442;2024-03-23T11:32:44;11.12;56.67
69503;SHT31;56704;54.242;12.442;2024-03-23T11:35:24;10.50;57.22
69503;SHT31;56704;54.242;12.442;2024-03-23T11:38:07;10.85;57.82
69503;SHT31;56704;54.242;12.442;2024-03-23T11:40:36;11.50;58.44
69503;SHT31;56704;54.242;12.442;2024-03-23T11:43:02;11.87;55.16
69503;SHT31;56704;54.242;12.442;2024-03-23T11:45:34;12.55;54.83
69503;SHT31;56704;54.242;12.442;2024-03-23T11:48:07;12.55;51.66
69503;SHT31;56704;54.242;12.442;2024-03-23T11:50:37;12.89;49.81
69503;SHT31;56704;54.242;12.442;2024-03-23T11:53:17;12.85;47.20
69503;SHT31;56704;54.242;12.442;2024-03-23T11:55:47;13.13;47.25
69503;SHT31;56704;54.242;12.442;2024-03-23T11:58:13;13.17;47.23
69503;SHT31;56704;54.242;12.442;2024-03-23T12:00:40;12.73;46.19
69503;SHT31;56704;54.242;12.442;2024-03-23T12:03:06;13.17;50.81
69503;SHT31;56704;54.242;12.442;2024-03-23T12:05:34;13.12;47.09
69503;SHT31;56704;54.242;12.442;2024-03-23T12:08:19;13.20;51.17
69503;SHT31;56704;54.242;12.442;2024-03-23T12:10:50;13.14;50.66
69503;SHT31;56704;54.242;12.442;2024-03-23T12:13:19;12.01;57.20
69503;SHT31;56704;54.242;12.442;2024-03-23T12:15:47;11.62;58.81
69503;SHT31;56704;54.242;12.442;2024-03-23T12:18:13;11.57;58.83
69503;SHT31;56704;54.242;12.442;2024-03-23T12:20:40;11.65;58.61
69503;SHT31;56704;54.242;12.442;2024-03-23T12:23:07;11.65;59.59
69503;SHT31;56704;54.242;12.442;2024-03-23T12:25:34;11.35;57.63
69503;SHT31;56704;54.242;12.442;2024-03-23T12:28:02;10.55;60.33
69503;SHT31;56704;54.242;12.442;2024-03-23T12:30:30;10.38;60.16
69503;SHT31;56704;54.242;12.442;2024-03-23T12:32:55;10.44;61.66
69503;SHT31;56704;54.242;12.442;2024-03-23T12:35:22;10.48;60.60
69503;SHT31;56704;54.242;12.442;2024-03-23T12:37:47;10.92;59.92
69503;SHT31;56704;54.242;12.442;2024-03-23T12:40:14;10.23;59.94
69503;SHT31;56704;54.242;12.442;2024-03-23T12:42:39;9.99;61.76
69503;SHT31;56704;54.242;12.442;2024-03-23T12:45:08;10.00;61.32
69503;SHT31;56704;54.242;12.442;2024-03-23T12:47:34;10.45;61.56
69503;SHT31;56704;54.242;12.442;2024-03-23T12:50:00;11.08;59.92
69503;SHT31;56704;54.242;12.442;2024-03-23T12:52:26;11.90;57.03
69503;SHT31;56704;54.242;12.442;2024-03-23T12:54:54;12.61;56.85
69503;SHT31;56704;54.242;12.442;2024-03-23T12:57:22;13.81;53.65
69503;SHT31;56704;54.242;12.442;2024-03-23T12:59:48;14.05;50.92
69503;SHT31;56704;54.242;12.442;2024-03-23T13:02:18;14.83;52.01
69503;SHT31;56704;54.242;12.442;2024-03-23T13:04:46;13.20;51.42
69503;SHT31;56704;54.242;12.442;2024-03-23T13:07:11;12.04;56.12
69503;SHT31;56704;54.242;12.442;2024-03-23T13:09:38;10.89;56.26
69503;SHT31;56704;54.242;12.442;2024-03-23T13:12:03;10.32;59.22
69503;SHT31;56704;54.242;12.442;2024-03-23T13:14:30;11.22;58.29
69503;SHT31;56704;54.242;12.442;2024-03-23T13:16:56;12.20;55.12
69503;SHT31;56704;54.242;12.442;2024-03-23T13:19:23;12.78;52.91
69503;SHT31;56704;54.242;12.442;2024-03-23T13:21:52;13.97;49.50
69503;SHT31;56704;54.242;12.442;2024-03-23T13:24:21;14.87;49.20
69503;SHT31;56704;54.242;12.442;2024-03-23T13:26:47;14.98;47.19
69503;SHT31;56704;54.242;12.442;2024-03-23T13:29:13;15.99;47.93
69503;SHT31;56704;54.242;12.442;2024-03-23T13:31:39;17.00;44.68
69503;SHT31;56704;54.242;12.442;2024-03-23T13:34:05;15.83;43.83
69503;SHT31;56704;54.242;12.442;2024-03-23T13:36:32;15.99;45.37
69503;SHT31;56704;54.242;12.442;2024-03-23T13:38:59;14.43;48.58
69503;SHT31;56704;54.242;12.442;2024-03-23T13:41:31;13.14;51.58
69503;SHT31;56704;54.242;12.442;2024-03-23T13:43:59;12.30;51.65
69503;SHT31;56704;54.242;12.442;2024-03-23T13:46:24;12.07;55.40
69503;SHT31;56704;54.242;12.442;2024-03-23T13:48:51;11.56;54.20
69503;SHT31;56704;54.242;12.442;2024-03-23T13:51:23;11.32;53.72
69503;SHT31;56704;54.242;12.442;2024-03-23T13:53:51;10.96;56.77
69503;SHT31;56704;54.242;12.442;2024-03-23T13:56:16;10.41;57.49
69503;SHT31;56704;54.242;12.442;2024-03-23T13:58:43;10.04;59.33
69503;SHT31;56704;54.242;12.442;2024-03-23T14:01:12;9.31;63.65
69503;SHT31;56704;54.242;12.442;2024-03-23T14:03:38;8.63;67.06
69503;SHT31;56704;54.242;12.442;2024-03-23T14:06:04;9.31;70.00
69503;SHT31;56704;54.242;12.442;2024-03-23T14:08:33;9.55;70.41
69503;SHT31;56704;54.242;12.442;2024-03-23T14:11:02;9.59;67.17
69503;SHT31;56704;54.242;12.442;2024-03-23T14:13:30;10.21;70.51
69503;SHT31;56704;54.242;12.442;2024-03-23T14:15:56;11.02;69.18
69503;SHT31;56704;54.242;12.442;2024-03-23T14:18:23;11.22;62.87
69503;SHT31;56704;54.242;12.442;2024-03-23T14:20:48;10.79;58.59
69503;SHT31;56704;54.242;12.442;2024-03-23T14:23:15;10.78;58.75
69503;SHT31;56704;54.242;12.442;2024-03-23T14:25:40;11.33;60.05
69503;SHT31;56704;54.242;12.442;2024-03-23T14:28:08;11.95;59.85
69503;SHT31;56704;54.242;12.442;2024-03-23T14:30:39;11.57;55.20
69503;SHT31;56704;54.242;12.442;2024-03-23T14:33:06;11.55;56.55
69503;SHT31;56704;54.242;12.442;2024-03-23T14:35:31;10.54;57.74
69503;SHT31;56704;54.242;12.442;2024-03-23T14:37:58;10.17;59.81
69503;SHT31;56704;54.242;12.442;2024-03-23T14:40:24;9.96;59.86
69503;SHT31;56704;54.242;12.442;2024-03-23T14:42:51;10.02;60.16
69503;SHT31;56704;54.242;12.442;2024-03-23T14:45:18;10.03;60.33
69503;SHT31;56704;54.242;12.442;2024-03-23T14:47:45;10.87;59.75
69503;SHT31;56704;54.242;12.442;2024-03-23T14:50:10;10.82;57.56
69503;SHT31;56704;54.242;12.442;2024-03-23T14:52:40;10.55;58.21
69503;SHT31;56704;54.242;12.442;2024-03-23T14:55:07;10.09;58.18
69503;SHT31;56704;54.242;12.442;2024-03-23T14:57:34;9.90;60.68
69503;SHT31;56704;54.242;12.442;2024-03-23T15:00:00;9.69;61.72
69503;SHT31;56704;54.242;12.442;2024-03-23T15:02:28;9.53;61.24
69503;SHT31;56704;54.242;12.442;2024-03-23T15:04:55;9.41;60.94
69503;SHT31;56704;54.242;12.442;2024-03-23T15:07:22;9.35;62.01
69503;SHT31;56704;54.242;12.442;2024-03-23T15:09:47;9.20;61.37
69503;SHT31;56704;54.242;12.442;2024-03-23T15:12:14;8.97;62.34
69503;SHT31;56704;54.242;12.442;2024-03-23T15:14:39;8.46;65.23
69503;SHT31;56704;54.242;12.442;2024-03-23T15:17:05;7.88;68.68
69503;SHT31;56704;54.242;12.442;2024-03-23T15:19:34;7.16;71.38
69503;SHT31;56704;54.242;12.442;2024-03-23T15:22:00;6.78;74.78
69503;SHT31;56704;54.242;12.442;2024-03-23T15:24:26;6.46;76.44
69503;SHT31;56704;54.242;12.442;2024-03-23T15:26:52;6.54;78.30
69503;SHT31;56704;54.242;12.442;2024-03-23T15:29:18;6.65;79.16
69503;SHT31;56704;54.242;12.442;2024-03-23T15:31:44;6.91;77.61
69503;SHT31;56704;54.242;12.442;2024-03-23T15:34:11;7.24;77.97
69503;SHT31;56704;54.242;12.442;2024-03-23T15:36:39;7.56;77.93
69503;SHT31;56704;54.242;12.442;2024-03-23T15:39:04;7.57;74.80
69503;SHT31;56704;54.242;12.442;2024-03-23T15:41:31;7.57;73.57
69503;SHT31;56704;54.242;12.442;2024-03-23T15:43:58;7.95;75.68
69503;SHT31;56704;54.242;12.442;2024-03-23T15:46:24;8.10;75.07
69503;SHT31;56704;54.242;12.442;2024-03-23T15:48:50;8.19;72.90
69503;SHT31;56704;54.242;12.442;2024-03-23T15:51:16;8.13;72.83
69503;SHT31;56704;54.242;12.442;2024-03-23T15:53:44;8.01;71.43
69503;SHT31;56704;54.242;12.442;2024-03-23T15:56:11;8.03;72.58
69503;SHT31;56704;54.242;12.442;2024-03-23T15:58:38;8.16;72.18
69503;SHT31;56704;54.242;12.442;2024-03-23T16:01:05;8.25;71.73
69503;SHT31;56704;54.242;12.442;2024-03-23T16:03:32;8.10;70.79
69503;SHT31;56704;54.242;12.442;2024-03-23T16:06:00;8.16;70.50
69503;SHT31;56704;54.242;12.442;2024-03-23T16:08:26;8.16;69.34
69503;SHT31;56704;54.242;12.442;2024-03-23T16:10:54;8.30;69.52
69503;SHT31;56704;54.242;12.442;2024-03-23T16:13:20;8.26;68.52
69503;SHT31;56704;54.242;12.442;2024-03-23T16:15:54;8.19;67.51
69503;SHT31;56704;54.242;12.442;2024-03-23T16:18:20;8.18;67.33